sensor_id;sensor_type;location;lat;lon;timestamp;P1;durP1;ratioP1;P2;durP2;ratioP2
15818;SDS011;8010;53.986;12.106;2022-08-03T00:01:50;2.90;;;1.57;;
15818;SDS011;8010;53.986;12.106;2022-08-03T00:04:15;3.87;;;1.80;;
15818;SDS011;8010;53.986;12.106;2022-08-03T00:06:41;6.90;;;1.90;;
15818;SDS011;8010;53.986;12.106;2022-08-03T00:09:07;5.73;;;1.53;;
15818;SDS011;8010;53.986;12.106;2022-08-03T00:11:33;2.53;;;1.40;;
15818;SDS011;8010;53.986;12.106;2022-08-03T00:13:59;4.40;;;1.60;;
15818;SDS011;8010;53.986;12.106;2022-08-03T00:16:25;4.93;;;1.40;;
15818;SDS011;8010;53.986;12.106;2022-08-03T00:18:51;4.63;;;1.60;;
15818;SDS011;8010;53.986;12.106;2022-08-03T00:21:17;5.30;;;1.40;;
15818;SDS011;8010;53.986;12.106;2022-08-03T00:23:42;1.50;;;1.20;;
15818;SDS011;8010;53.986;12.106;2022-08-03T00:26:08;5.43;;;1.90;;
15818;SDS011;8010;53.986;12.106;2022-08-03T00:28:34;4.57;;;1.90;;
15818;SDS011;8010;53.986;12.106;2022-08-03T00:30:59;2.83;;;1.60;;
15818;SDS011;8010;53.986;12.106;2022-08-03T00:33:25;2.90;;;1.57;;
15818;SDS011;8010;53.986;12.106;2022-08-03T00:35:50;3.57;;;1.77;;
15818;SDS011;8010;53.986;12.106;2022-08-03T00:38:16;2.87;;;1.83;;
15818;SDS011;8010;53.986;12.106;2022-08-03T00:40:43;3.70;;;1.87;;
15818;SDS011;8010;53.986;12.106;2022-08-03T00:43:08;4.70;;;1.83;;
15818;SDS011;8010;53.986;12.106;2022-08-03T00:45:36;3.17;;;1.60;;
15818;SDS011;8010;53.986;12.106;2022-08-03T00:48:04;5.30;;;2.37;;
15818;SDS011;8010;53.986;12.106;2022-08-03T00:50:31;2.40;;;1.50;;
15818;SDS011;8010;53.986;12.106;2022-08-03T00:53:00;3.47;;;1.60;;
15818;SDS011;8010;53.986;12.106;2022-08-03T00:55:27;5.63;;;1.60;;
15818;SDS011;8010;53.986;12.106;2022-08-03T00:57:53;3.43;;;2.27;;
15818;SDS011;8010;53.986;12.106;2022-08-03T01:00:21;5.43;;;1.50;;
15818;SDS011;8010;53.986;12.106;2022-08-03T01:02:49;5.90;;;1.67;;
15818;SDS011;8010;53.986;12.106;2022-08-03T01:05:16;5.90;;;1.80;;
15818;SDS011;8010;53.986;12.106;2022-08-03T01:10:38;4.53;;;1.77;;
15818;SDS011;8010;53.986;12.106;2022-08-03T01:13:27;3.10;;;1.43;;
15818;SDS011;8010;53.986;12.106;2022-08-03T01:21:15;1.77;;;1.43;;
15818;SDS011;8010;53.986;12.106;2022-08-03T01:26:26;4.13;;;1.50;;
15818;SDS011;8010;53.986;12.106;2022-08-03T01:31:57;2.83;;;1.80;;
15818;SDS011;8010;53.986;12.106;2022-08-03T01:34:31;2.57;;;1.60;;
15818;SDS011;8010;53.986;12.106;2022-08-03T01:37:05;5.70;;;1.80;;
15818;SDS011;8010;53.986;12.106;2022-08-03T01:39:33;2.40;;;1.60;;
15818;SDS011;8010;53.986;12.106;2022-08-03T01:42:03;4.17;;;1.90;;
15818;SDS011;8010;53.986;12.106;2022-08-03T01:44:30;3.60;;;1.63;;
15818;SDS011;8010;53.986;12.106;2022-08-03T01:47:00;4.07;;;1.60;;
15818;SDS011;8010;53.986;12.106;2022-08-03T01:49:27;4.43;;;2.00;;
15818;SDS011;8010;53.986;12.106;2022-08-03T01:51:55;3.03;;;1.60;;
15818;SDS011;8010;53.986;12.106;2022-08-03T01:54:22;4.07;;;1.93;;
15818;SDS011;8010;53.986;12.106;2022-08-03T01:56:50;6.03;;;1.97;;
15818;SDS011;8010;53.986;12.106;2022-08-03T01:59:18;3.50;;;1.90;;
15818;SDS011;8010;53.986;12.106;2022-08-03T02:01:45;3.20;;;2.00;;
15818;SDS011;8010;53.986;12.106;2022-08-03T02:04:13;3.37;;;1.80;;
15818;SDS011;8010;53.986;12.106;2022-08-03T02:06:42;3.17;;;1.70;;
15818;SDS011;8010;53.986;12.106;2022-08-03T02:09:11;4.30;;;1.90;;
15818;SDS011;8010;53.986;12.106;2022-08-03T02:11:38;4.00;;;2.10;;
15818;SDS011;8010;53.986;12.106;2022-08-03T02:14:04;6.33;;;2.00;;
15818;SDS011;8010;53.986;12.106;2022-08-03T02:16:31;5.87;;;1.67;;
15818;SDS011;8010;53.986;12.106;2022-08-03T02:18:58;4.30;;;2.23;;
15818;SDS011;8010;53.986;12.106;2022-08-03T02:21:27;2.37;;;2.00;;
15818;SDS011;8010;53.986;12.106;2022-08-03T02:23:56;6.10;;;2.07;;
15818;SDS011;8010;53.986;12.106;2022-08-03T02:26:21;2.43;;;1.93;;
15818;SDS011;8010;53.986;12.106;2022-08-03T02:28:51;3.60;;;2.17;;
15818;SDS011;8010;53.986;12.106;2022-08-03T02:31:20;2.53;;;2.20;;
15818;SDS011;8010;53.986;12.106;2022-08-03T02:33:51;4.03;;;2.13;;
15818;SDS011;8010;53.986;12.106;2022-08-03T02:36:19;4.33;;;2.23;;
15818;SDS011;8010;53.986;12.106;2022-08-03T02:38:48;6.43;;;2.50;;
15818;SDS011;8010;53.986;12.106;2022-08-03T02:41:20;4.50;;;2.20;;
15818;SDS011;8010;53.986;12.106;2022-08-03T02:43:49;2.27;;;2.00;;
15818;SDS011;8010;53.986;12.106;2022-08-03T02:46:18;3.63;;;2.30;;
15818;SDS011;8010;53.986;12.106;2022-08-03T02:48:47;3.73;;;2.27;;
15818;SDS011;8010;53.986;12.106;2022-08-03T02:51:14;2.63;;;2.10;;
15818;SDS011;8010;53.986;12.106;2022-08-03T02:53:42;4.47;;;2.30;;
15818;SDS011;8010;53.986;12.106;2022-08-03T02:56:09;2.80;;;1.80;;
15818;SDS011;8010;53.986;12.106;2022-08-03T02:58:36;3.83;;;2.10;;
15818;SDS011;8010;53.986;12.106;2022-08-03T03:01:04;2.80;;;2.00;;
15818;SDS011;8010;53.986;12.106;2022-08-03T03:03:31;4.53;;;2.20;;
15818;SDS011;8010;53.986;12.106;2022-08-03T03:05:58;3.50;;;2.47;;
15818;SDS011;8010;53.986;12.106;2022-08-03T03:08:24;5.87;;;2.60;;
15818;SDS011;8010;53.986;12.106;2022-08-03T03:10:51;3.90;;;2.80;;
15818;SDS011;8010;53.986;12.106;2022-08-03T03:13:18;3.77;;;2.47;;
15818;SDS011;8010;53.986;12.106;2022-08-03T03:15:45;3.57;;;2.30;;
15818;SDS011;8010;53.986;12.106;2022-08-03T03:18:12;3.37;;;2.67;;
15818;SDS011;8010;53.986;12.106;2022-08-03T03:20:39;4.07;;;2.20;;
15818;SDS011;8010;53.986;12.106;2022-08-03T03:23:05;3.80;;;2.53;;
15818;SDS011;8010;53.986;12.106;2022-08-03T03:25:32;3.97;;;2.80;;
15818;SDS011;8010;53.986;12.106;2022-08-03T03:27:59;3.20;;;2.67;;
15818;SDS011;8010;53.986;12.106;2022-08-03T03:30:25;2.80;;;2.50;;
15818;SDS011;8010;53.986;12.106;2022-08-03T03:32:51;5.53;;;2.57;;
15818;SDS011;8010;53.986;12.106;2022-08-03T03:35:17;3.40;;;2.63;;
15818;SDS011;8010;53.986;12.106;2022-08-03T03:37:43;4.30;;;3.00;;
15818;SDS011;8010;53.986;12.106;2022-08-03T03:40:08;3.40;;;2.33;;
15818;SDS011;8010;53.986;12.106;2022-08-03T03:42:35;6.00;;;2.70;;
15818;SDS011;8010;53.986;12.106;2022-08-03T03:45:02;3.47;;;2.40;;
15818;SDS011;8010;53.986;12.106;2022-08-03T03:47:29;2.93;;;2.63;;
15818;SDS011;8010;53.986;12.106;2022-08-03T03:49:56;3.57;;;2.50;;
15818;SDS011;8010;53.986;12.106;2022-08-03T03:52:21;4.67;;;2.90;;
15818;SDS011;8010;53.986;12.106;2022-08-03T03:54:47;5.23;;;2.70;;
15818;SDS011;8010;53.986;12.106;2022-08-03T03:57:12;5.57;;;2.63;;
15818;SDS011;8010;53.986;12.106;2022-08-03T03:59:38;3.90;;;2.93;;
15818;SDS011;8010;53.986;12.106;2022-08-03T04:02:05;3.27;;;2.50;;
15818;SDS011;8010;53.986;12.106;2022-08-03T04:04:32;3.10;;;2.80;;
15818;SDS011;8010;53.986;12.106;2022-08-03T04:07:17;5.83;;;3.00;;
15818;SDS011;8010;53.986;12.106;2022-08-03T04:10:03;3.03;;;2.73;;
15818;SDS011;8010;53.986;12.106;2022-08-03T04:12:53;3.20;;;2.67;;
15818;SDS011;8010;53.986;12.106;2022-08-03T04:15:21;4.87;;;3.10;;
15818;SDS011;8010;53.986;12.106;2022-08-03T04:17:49;5.77;;;3.33;;
15818;SDS011;8010;53.986;12.106;2022-08-03T04:20:18;3.93;;;3.20;;
15818;SDS011;8010;53.986;12.106;2022-08-03T04:22:46;6.47;;;3.37;;
15818;SDS011;8010;53.986;12.106;2022-08-03T04:25:15;4.57;;;3.50;;
15818;SDS011;8010;53.986;12.106;2022-08-03T04:27:43;4.87;;;3.27;;
15818;SDS011;8010;53.986;12.106;2022-08-03T04:30:11;12.43;;;3.73;;
15818;SDS011;8010;53.986;12.106;2022-08-03T04:32:38;7.87;;;3.27;;
15818;SDS011;8010;53.986;12.106;2022-08-03T04:35:06;8.07;;;3.20;;
15818;SDS011;8010;53.986;12.106;2022-08-03T04:37:39;3.83;;;3.03;;
15818;SDS011;8010;53.986;12.106;2022-08-03T04:40:14;4.87;;;3.23;;
15818;SDS011;8010;53.986;12.106;2022-08-03T04:42:54;3.60;;;3.30;;
15818;SDS011;8010;53.986;12.106;2022-08-03T04:45:20;4.13;;;3.10;;
15818;SDS011;8010;53.986;12.106;2022-08-03T04:47:47;6.07;;;3.73;;
15818;SDS011;8010;53.986;12.106;2022-08-03T04:50:14;3.83;;;3.43;;
15818;SDS011;8010;53.986;12.106;2022-08-03T04:52:40;5.80;;;3.70;;
15818;SDS011;8010;53.986;12.106;2022-08-03T04:55:06;4.80;;;3.17;;
15818;SDS011;8010;53.986;12.106;2022-08-03T04:57:31;5.30;;;3.53;;
15818;SDS011;8010;53.986;12.106;2022-08-03T04:59:57;8.97;;;3.47;;
15818;SDS011;8010;53.986;12.106;2022-08-03T05:02:23;6.50;;;3.07;;
15818;SDS011;8010;53.986;12.106;2022-08-03T05:04:48;4.50;;;3.57;;
15818;SDS011;8010;53.986;12.106;2022-08-03T05:07:15;6.63;;;3.40;;
15818;SDS011;8010;53.986;12.106;2022-08-03T05:09:42;6.03;;;3.57;;
15818;SDS011;8010;53.986;12.106;2022-08-03T05:12:08;4.10;;;3.13;;
15818;SDS011;8010;53.986;12.106;2022-08-03T05:14:34;6.07;;;3.17;;
15818;SDS011;8010;53.986;12.106;2022-08-03T05:17:02;4.70;;;2.80;;
15818;SDS011;8010;53.986;12.106;2022-08-03T05:19:28;3.40;;;3.10;;
15818;SDS011;8010;53.986;12.106;2022-08-03T05:21:54;4.83;;;2.60;;
15818;SDS011;8010;53.986;12.106;2022-08-03T05:24:20;3.13;;;2.80;;
15818;SDS011;8010;53.986;12.106;2022-08-03T05:26:45;5.20;;;2.73;;
15818;SDS011;8010;53.986;12.106;2022-08-03T05:29:11;4.40;;;2.90;;
15818;SDS011;8010;53.986;12.106;2022-08-03T05:31:36;2.67;;;2.40;;
15818;SDS011;8010;53.986;12.106;2022-08-03T05:34:02;3.63;;;2.60;;
15818;SDS011;8010;53.986;12.106;2022-08-03T05:36:27;2.40;;;2.20;;
15818;SDS011;8010;53.986;12.106;2022-08-03T05:38:53;3.87;;;2.43;;
15818;SDS011;8010;53.986;12.106;2022-08-03T05:41:18;5.20;;;2.60;;
15818;SDS011;8010;53.986;12.106;2022-08-03T05:43:44;2.40;;;2.20;;
15818;SDS011;8010;53.986;12.106;2022-08-03T05:46:10;3.20;;;2.20;;
15818;SDS011;8010;53.986;12.106;2022-08-03T05:48:36;2.30;;;2.10;;
15818;SDS011;8010;53.986;12.106;2022-08-03T05:51:01;1.90;;;1.80;;
15818;SDS011;8010;53.986;12.106;2022-08-03T05:53:31;3.47;;;2.07;;
15818;SDS011;8010;53.986;12.106;2022-08-03T05:55:57;4.03;;;2.20;;
15818;SDS011;8010;53.986;12.106;2022-08-03T05:58:23;3.30;;;2.23;;
15818;SDS011;8010;53.986;12.106;2022-08-03T06:00:49;5.63;;;2.40;;
15818;SDS011;8010;53.986;12.106;2022-08-03T06:03:14;2.50;;;2.30;;
15818;SDS011;8010;53.986;12.106;2022-08-03T06:05:40;2.40;;;2.20;;
15818;SDS011;8010;53.986;12.106;2022-08-03T06:08:05;2.10;;;1.90;;
15818;SDS011;8010;53.986;12.106;2022-08-03T06:10:31;2.90;;;2.00;;
15818;SDS011;8010;53.986;12.106;2022-08-03T06:12:57;2.40;;;2.20;;
15818;SDS011;8010;53.986;12.106;2022-08-03T06:15:22;4.63;;;2.13;;
15818;SDS011;8010;53.986;12.106;2022-08-03T06:17:48;2.77;;;2.30;;
15818;SDS011;8010;53.986;12.106;2022-08-03T06:20:15;2.23;;;1.97;;
15818;SDS011;8010;53.986;12.106;2022-08-03T06:22:43;5.03;;;2.20;;
15818;SDS011;8010;53.986;12.106;2022-08-03T06:25:10;2.03;;;1.83;;
15818;SDS011;8010;53.986;12.106;2022-08-03T06:27:35;2.33;;;2.10;;
15818;SDS011;8010;53.986;12.106;2022-08-03T06:30:04;3.30;;;2.10;;
15818;SDS011;8010;53.986;12.106;2022-08-03T06:32:31;2.43;;;2.20;;
15818;SDS011;8010;53.986;12.106;2022-08-03T06:34:57;4.70;;;2.13;;
15818;SDS011;8010;53.986;12.106;2022-08-03T06:37:23;3.17;;;1.97;;
15818;SDS011;8010;53.986;12.106;2022-08-03T06:39:50;2.27;;;2.07;;
15818;SDS011;8010;53.986;12.106;2022-08-03T06:42:16;2.20;;;1.97;;
15818;SDS011;8010;53.986;12.106;2022-08-03T06:44:42;4.67;;;2.00;;
15818;SDS011;8010;53.986;12.106;2022-08-03T06:47:07;2.90;;;2.23;;
15818;SDS011;8010;53.986;12.106;2022-08-03T06:49:33;2.23;;;2.03;;
15818;SDS011;8010;53.986;12.106;2022-08-03T06:51:58;5.83;;;2.30;;
15818;SDS011;8010;53.986;12.106;2022-08-03T06:54:24;3.83;;;2.53;;
15818;SDS011;8010;53.986;12.106;2022-08-03T06:56:49;2.50;;;2.10;;
15818;SDS011;8010;53.986;12.106;2022-08-03T06:59:15;3.90;;;2.30;;
15818;SDS011;8010;53.986;12.106;2022-08-03T07:01:41;2.30;;;2.10;;
15818;SDS011;8010;53.986;12.106;2022-08-03T07:04:06;2.30;;;2.10;;
15818;SDS011;8010;53.986;12.106;2022-08-03T07:06:32;2.33;;;2.13;;
15818;SDS011;8010;53.986;12.106;2022-08-03T07:08:58;6.67;;;2.30;;
15818;SDS011;8010;53.986;12.106;2022-08-03T07:11:23;2.43;;;1.90;;
15818;SDS011;8010;53.986;12.106;2022-08-03T07:13:49;2.33;;;1.87;;
15818;SDS011;8010;53.986;12.106;2022-08-03T07:16:15;2.30;;;1.70;;
15818;SDS011;8010;53.986;12.106;2022-08-03T07:18:40;2.50;;;2.00;;
15818;SDS011;8010;53.986;12.106;2022-08-03T07:21:06;3.57;;;1.90;;
15818;SDS011;8010;53.986;12.106;2022-08-03T07:23:33;2.47;;;1.80;;
15818;SDS011;8010;53.986;12.106;2022-08-03T07:25:58;1.90;;;1.70;;
15818;SDS011;8010;53.986;12.106;2022-08-03T07:28:24;2.00;;;1.80;;
15818;SDS011;8010;53.986;12.106;2022-08-03T07:30:49;2.10;;;1.90;;
15818;SDS011;8010;53.986;12.106;2022-08-03T07:33:15;2.70;;;2.10;;
15818;SDS011;8010;53.986;12.106;2022-08-03T07:35:41;2.53;;;2.27;;
15818;SDS011;8010;53.986;12.106;2022-08-03T07:38:06;2.97;;;2.20;;
15818;SDS011;8010;53.986;12.106;2022-08-03T07:40:32;2.37;;;2.13;;
15818;SDS011;8010;53.986;12.106;2022-08-03T07:42:58;2.30;;;2.03;;
15818;SDS011;8010;53.986;12.106;2022-08-03T07:45:24;2.80;;;1.93;;
15818;SDS011;8010;53.986;12.106;2022-08-03T07:47:50;3.03;;;2.17;;
15818;SDS011;8010;53.986;12.106;2022-08-03T07:50:16;2.83;;;2.07;;
15818;SDS011;8010;53.986;12.106;2022-08-03T07:52:41;2.70;;;2.20;;
15818;SDS011;8010;53.986;12.106;2022-08-03T07:55:13;4.20;;;2.17;;
15818;SDS011;8010;53.986;12.106;2022-08-03T07:57:39;2.50;;;1.90;;
15818;SDS011;8010;53.986;12.106;2022-08-03T08:00:06;3.20;;;2.33;;
15818;SDS011;8010;53.986;12.106;2022-08-03T08:02:37;3.30;;;2.10;;
15818;SDS011;8010;53.986;12.106;2022-08-03T08:05:03;2.13;;;1.90;;
15818;SDS011;8010;53.986;12.106;2022-08-03T08:07:29;2.47;;;1.80;;
15818;SDS011;8010;53.986;12.106;2022-08-03T08:09:55;2.23;;;1.77;;
15818;SDS011;8010;53.986;12.106;2022-08-03T08:12:20;2.10;;;2.00;;
15818;SDS011;8010;53.986;12.106;2022-08-03T08:14:46;2.27;;;2.00;;
15818;SDS011;8010;53.986;12.106;2022-08-03T08:17:12;6.47;;;2.23;;
15818;SDS011;8010;53.986;12.106;2022-08-03T08:19:37;2.37;;;1.80;;
15818;SDS011;8010;53.986;12.106;2022-08-03T08:22:03;2.73;;;1.73;;
15818;SDS011;8010;53.986;12.106;2022-08-03T08:24:30;2.33;;;1.73;;
15818;SDS011;8010;53.986;12.106;2022-08-03T08:26:57;2.70;;;2.17;;
15818;SDS011;8010;53.986;12.106;2022-08-03T08:29:24;1.70;;;1.60;;
15818;SDS011;8010;53.986;12.106;2022-08-03T08:31:49;2.00;;;1.80;;
15818;SDS011;8010;53.986;12.106;2022-08-03T08:34:15;4.07;;;1.80;;
15818;SDS011;8010;53.986;12.106;2022-08-03T08:36:40;2.00;;;1.83;;
15818;SDS011;8010;53.986;12.106;2022-08-03T08:39:06;2.20;;;1.73;;
15818;SDS011;8010;53.986;12.106;2022-08-03T08:41:32;3.30;;;1.77;;
15818;SDS011;8010;53.986;12.106;2022-08-03T08:43:58;1.90;;;1.70;;
15818;SDS011;8010;53.986;12.106;2022-08-03T08:46:28;2.20;;;1.87;;
15818;SDS011;8010;53.986;12.106;2022-08-03T08:48:56;1.87;;;1.60;;
15818;SDS011;8010;53.986;12.106;2022-08-03T08:51:26;2.00;;;1.80;;
15818;SDS011;8010;53.986;12.106;2022-08-03T08:53:55;2.53;;;1.70;;
15818;SDS011;8010;53.986;12.106;2022-08-03T08:56:25;3.27;;;2.10;;
15818;SDS011;8010;53.986;12.106;2022-08-03T08:58:52;3.00;;;1.90;;
15818;SDS011;8010;53.986;12.106;2022-08-03T09:01:22;2.17;;;1.87;;
15818;SDS011;8010;53.986;12.106;2022-08-03T09:03:48;3.07;;;1.47;;
15818;SDS011;8010;53.986;12.106;2022-08-03T09:06:14;5.80;;;1.70;;
15818;SDS011;8010;53.986;12.106;2022-08-03T09:08:40;2.03;;;1.70;;
15818;SDS011;8010;53.986;12.106;2022-08-03T09:11:05;2.33;;;1.80;;
15818;SDS011;8010;53.986;12.106;2022-08-03T09:13:34;2.97;;;1.70;;
15818;SDS011;8010;53.986;12.106;2022-08-03T09:16:13;2.73;;;1.70;;
15818;SDS011;8010;53.986;12.106;2022-08-03T09:18:41;2.40;;;2.00;;
15818;SDS011;8010;53.986;12.106;2022-08-03T09:21:21;1.83;;;1.70;;
15818;SDS011;8010;53.986;12.106;2022-08-03T09:23:49;2.00;;;1.80;;
15818;SDS011;8010;53.986;12.106;2022-08-03T09:26:23;2.13;;;1.73;;
15818;SDS011;8010;53.986;12.106;2022-08-03T09:28:53;2.47;;;1.70;;
15818;SDS011;8010;53.986;12.106;2022-08-03T09:31:30;2.33;;;1.57;;
15818;SDS011;8010;53.986;12.106;2022-08-03T09:33:59;2.40;;;1.70;;
15818;SDS011;8010;53.986;12.106;2022-08-03T09:36:40;3.43;;;1.50;;
15818;SDS011;8010;53.986;12.106;2022-08-03T09:39:11;3.70;;;2.20;;
15818;SDS011;8010;53.986;12.106;2022-08-03T09:41:40;3.13;;;1.63;;
15818;SDS011;8010;53.986;12.106;2022-08-03T09:44:07;2.13;;;1.90;;
15818;SDS011;8010;53.986;12.106;2022-08-03T09:46:49;3.27;;;1.70;;
15818;SDS011;8010;53.986;12.106;2022-08-03T09:49:16;3.93;;;2.17;;
15818;SDS011;8010;53.986;12.106;2022-08-03T09:51:42;2.83;;;1.70;;
15818;SDS011;8010;53.986;12.106;2022-08-03T09:54:08;2.03;;;1.77;;
15818;SDS011;8010;53.986;12.106;2022-08-03T09:56:44;3.47;;;1.30;;
15818;SDS011;8010;53.986;12.106;2022-08-03T09:59:12;1.50;;;1.40;;
15818;SDS011;8010;53.986;12.106;2022-08-03T10:01:48;1.93;;;1.43;;
15818;SDS011;8010;53.986;12.106;2022-08-03T10:04:14;3.13;;;1.50;;
15818;SDS011;8010;53.986;12.106;2022-08-03T10:06:43;1.60;;;1.37;;
15818;SDS011;8010;53.986;12.106;2022-08-03T10:09:29;1.73;;;1.40;;
15818;SDS011;8010;53.986;12.106;2022-08-03T10:11:54;1.70;;;1.60;;
15818;SDS011;8010;53.986;12.106;2022-08-03T10:14:21;5.50;;;1.67;;
15818;SDS011;8010;53.986;12.106;2022-08-03T10:16:47;1.50;;;1.40;;
15818;SDS011;8010;53.986;12.106;2022-08-03T10:19:13;2.20;;;1.40;;
15818;SDS011;8010;53.986;12.106;2022-08-03T10:21:40;3.10;;;1.50;;
15818;SDS011;8010;53.986;12.106;2022-08-03T10:24:11;2.00;;;1.80;;
15818;SDS011;8010;53.986;12.106;2022-08-03T10:26:40;2.65;;;1.40;;
15818;SDS011;8010;53.986;12.106;2022-08-03T10:29:13;3.25;;;1.50;;
15818;SDS011;8010;53.986;12.106;2022-08-03T10:31:45;3.58;;;1.80;;
15818;SDS011;8010;53.986;12.106;2022-08-03T10:34:16;2.77;;;1.30;;
15818;SDS011;8010;53.986;12.106;2022-08-03T10:36:46;2.83;;;1.40;;
15818;SDS011;8010;53.986;12.106;2022-08-03T10:39:12;2.90;;;1.50;;
15818;SDS011;8010;53.986;12.106;2022-08-03T10:41:42;1.42;;;1.33;;
15818;SDS011;8010;53.986;12.106;2022-08-03T10:44:18;1.48;;;1.38;;
15818;SDS011;8010;53.986;12.106;2022-08-03T10:46:45;1.58;;;1.20;;
15818;SDS011;8010;53.986;12.106;2022-08-03T10:49:16;1.40;;;1.23;;
15818;SDS011;8010;53.986;12.106;2022-08-03T10:51:43;2.93;;;1.53;;
15818;SDS011;8010;53.986;12.106;2022-08-03T10:57:01;1.60;;;1.35;;
15818;SDS011;8010;53.986;12.106;2022-08-03T11:02:13;2.50;;;1.60;;
15818;SDS011;8010;53.986;12.106;2022-08-03T11:04:39;3.60;;;1.60;;
15818;SDS011;8010;53.986;12.106;2022-08-03T11:12:28;2.70;;;1.57;;
15818;SDS011;8010;53.986;12.106;2022-08-03T11:15:01;2.05;;;1.52;;
15818;SDS011;8010;53.986;12.106;2022-08-03T11:17:30;2.83;;;1.90;;
15818;SDS011;8010;53.986;12.106;2022-08-03T11:19:57;2.20;;;1.42;;
15818;SDS011;8010;53.986;12.106;2022-08-03T11:22:23;4.80;;;1.70;;
15818;SDS011;8010;53.986;12.106;2022-08-03T11:27:18;4.25;;;1.73;;
15818;SDS011;8010;53.986;12.106;2022-08-03T11:35:05;2.13;;;1.70;;
15818;SDS011;8010;53.986;12.106;2022-08-03T11:37:34;3.25;;;1.40;;
15818;SDS011;8010;53.986;12.106;2022-08-03T11:40:00;1.63;;;1.52;;
15818;SDS011;8010;53.986;12.106;2022-08-03T11:44:56;2.50;;;1.85;;
15818;SDS011;8010;53.986;12.106;2022-08-03T11:47:24;2.00;;;1.50;;
15818;SDS011;8010;53.986;12.106;2022-08-03T11:49:55;1.88;;;1.65;;
15818;SDS011;8010;53.986;12.106;2022-08-03T11:52:23;3.40;;;1.42;;
15818;SDS011;8010;53.986;12.106;2022-08-03T11:54:52;3.63;;;1.60;;
15818;SDS011;8010;53.986;12.106;2022-08-03T11:57:28;1.48;;;1.30;;
15818;SDS011;8010;53.986;12.106;2022-08-03T11:59:55;2.25;;;1.67;;
15818;SDS011;8010;53.986;12.106;2022-08-03T12:02:20;2.03;;;1.35;;
15818;SDS011;8010;53.986;12.106;2022-08-03T12:04:56;2.88;;;1.70;;
15818;SDS011;8010;53.986;12.106;2022-08-03T12:07:25;1.70;;;1.60;;
15818;SDS011;8010;53.986;12.106;2022-08-03T12:10:08;2.30;;;1.88;;
15818;SDS011;8010;53.986;12.106;2022-08-03T12:12:35;2.55;;;1.40;;
15818;SDS011;8010;53.986;12.106;2022-08-03T12:15:02;2.42;;;1.45;;
15818;SDS011;8010;53.986;12.106;2022-08-03T12:17:35;2.00;;;1.67;;
15818;SDS011;8010;53.986;12.106;2022-08-03T12:20:03;1.95;;;1.52;;
15818;SDS011;8010;53.986;12.106;2022-08-03T12:22:37;1.75;;;1.40;;
15818;SDS011;8010;53.986;12.106;2022-08-03T12:25:04;3.85;;;1.60;;
15818;SDS011;8010;53.986;12.106;2022-08-03T12:27:33;3.45;;;1.50;;
15818;SDS011;8010;53.986;12.106;2022-08-03T12:30:00;1.73;;;1.63;;
15818;SDS011;8010;53.986;12.106;2022-08-03T12:32:26;2.10;;;1.50;;
15818;SDS011;8010;53.986;12.106;2022-08-03T12:34:53;3.50;;;1.35;;
15818;SDS011;8010;53.986;12.106;2022-08-03T12:37:23;2.38;;;1.30;;
15818;SDS011;8010;53.986;12.106;2022-08-03T12:39:49;1.92;;;1.30;;
15818;SDS011;8010;53.986;12.106;2022-08-03T12:42:19;1.85;;;1.40;;
15818;SDS011;8010;53.986;12.106;2022-08-03T12:44:45;4.32;;;1.63;;
15818;SDS011;8010;53.986;12.106;2022-08-03T12:47:12;3.58;;;1.60;;
15818;SDS011;8010;53.986;12.106;2022-08-03T12:49:46;3.80;;;1.50;;
15818;SDS011;8010;53.986;12.106;2022-08-03T12:52:14;2.65;;;1.00;;
15818;SDS011;8010;53.986;12.106;2022-08-03T12:54:40;2.58;;;1.10;;
15818;SDS011;8010;53.986;12.106;2022-08-03T12:57:07;4.05;;;1.27;;
15818;SDS011;8010;53.986;12.106;2022-08-03T12:59:36;2.78;;;1.10;;
15818;SDS011;8010;53.986;12.106;2022-08-03T13:02:16;4.35;;;1.38;;
15818;SDS011;8010;53.986;12.106;2022-08-03T13:04:42;4.20;;;0.90;;
15818;SDS011;8010;53.986;12.106;2022-08-03T13:07:09;3.05;;;1.20;;
15818;SDS011;8010;53.986;12.106;2022-08-03T13:09:42;1.45;;;0.93;;
15818;SDS011;8010;53.986;12.106;2022-08-03T13:12:19;1.90;;;1.25;;
15818;SDS011;8010;53.986;12.106;2022-08-03T13:14:50;2.10;;;1.10;;
15818;SDS011;8010;53.986;12.106;2022-08-03T13:17:18;1.10;;;1.00;;
15818;SDS011;8010;53.986;12.106;2022-08-03T13:19:44;1.30;;;0.80;;
15818;SDS011;8010;53.986;12.106;2022-08-03T13:22:17;4.88;;;1.10;;
15818;SDS011;8010;53.986;12.106;2022-08-03T13:24:44;2.22;;;1.00;;
15818;SDS011;8010;53.986;12.106;2022-08-03T13:27:12;1.98;;;0.90;;
15818;SDS011;8010;53.986;12.106;2022-08-03T13:29:38;5.43;;;1.25;;
15818;SDS011;8010;53.986;12.106;2022-08-03T13:32:04;1.15;;;1.00;;
15818;SDS011;8010;53.986;12.106;2022-08-03T13:34:31;1.88;;;1.00;;
15818;SDS011;8010;53.986;12.106;2022-08-03T13:36:57;2.03;;;1.17;;
15818;SDS011;8010;53.986;12.106;2022-08-03T13:39:23;3.53;;;1.00;;
15818;SDS011;8010;53.986;12.106;2022-08-03T13:41:48;1.17;;;0.90;;
15818;SDS011;8010;53.986;12.106;2022-08-03T13:44:14;1.20;;;1.10;;
15818;SDS011;8010;53.986;12.106;2022-08-03T13:46:39;3.05;;;0.98;;
15818;SDS011;8010;53.986;12.106;2022-08-03T13:49:05;2.45;;;1.40;;
15818;SDS011;8010;53.986;12.106;2022-08-03T13:51:31;2.28;;;1.10;;
15818;SDS011;8010;53.986;12.106;2022-08-03T13:53:57;4.03;;;1.40;;
15818;SDS011;8010;53.986;12.106;2022-08-03T13:56:24;3.50;;;1.23;;
15818;SDS011;8010;53.986;12.106;2022-08-03T13:58:50;1.58;;;1.17;;
15818;SDS011;8010;53.986;12.106;2022-08-03T14:01:16;2.03;;;1.00;;
15818;SDS011;8010;53.986;12.106;2022-08-03T14:03:41;1.65;;;1.15;;
15818;SDS011;8010;53.986;12.106;2022-08-03T14:06:07;2.45;;;1.05;;
15818;SDS011;8010;53.986;12.106;2022-08-03T14:08:32;3.42;;;1.40;;
15818;SDS011;8010;53.986;12.106;2022-08-03T14:10:58;4.50;;;1.25;;
15818;SDS011;8010;53.986;12.106;2022-08-03T14:13:24;1.40;;;1.15;;
15818;SDS011;8010;53.986;12.106;2022-08-03T14:15:50;1.83;;;1.10;;
15818;SDS011;8010;53.986;12.106;2022-08-03T14:18:16;2.33;;;1.20;;
15818;SDS011;8010;53.986;12.106;2022-08-03T14:20:43;1.38;;;1.27;;
15818;SDS011;8010;53.986;12.106;2022-08-03T14:23:09;2.97;;;1.20;;
15818;SDS011;8010;53.986;12.106;2022-08-03T14:25:34;2.53;;;1.30;;
15818;SDS011;8010;53.986;12.106;2022-08-03T14:28:00;1.27;;;1.10;;
15818;SDS011;8010;53.986;12.106;2022-08-03T14:30:25;3.78;;;1.60;;
15818;SDS011;8010;53.986;12.106;2022-08-03T14:32:51;2.42;;;1.58;;
15818;SDS011;8010;53.986;12.106;2022-08-03T14:35:16;4.35;;;1.27;;
15818;SDS011;8010;53.986;12.106;2022-08-03T14:37:42;1.45;;;1.33;;
15818;SDS011;8010;53.986;12.106;2022-08-03T14:40:07;3.05;;;1.90;;
15818;SDS011;8010;53.986;12.106;2022-08-03T14:42:33;1.75;;;1.10;;
15818;SDS011;8010;53.986;12.106;2022-08-03T14:44:59;1.33;;;1.23;;
15818;SDS011;8010;53.986;12.106;2022-08-03T14:47:24;1.52;;;0.95;;
15818;SDS011;8010;53.986;12.106;2022-08-03T14:49:50;1.00;;;0.90;;
15818;SDS011;8010;53.986;12.106;2022-08-03T14:52:15;1.77;;;1.08;;
15818;SDS011;8010;53.986;12.106;2022-08-03T14:54:41;1.92;;;1.05;;
15818;SDS011;8010;53.986;12.106;2022-08-03T14:57:06;2.65;;;1.20;;
15818;SDS011;8010;53.986;12.106;2022-08-03T14:59:32;3.85;;;1.20;;
15818;SDS011;8010;53.986;12.106;2022-08-03T15:01:57;3.25;;;1.27;;
15818;SDS011;8010;53.986;12.106;2022-08-03T15:04:23;3.10;;;1.20;;
15818;SDS011;8010;53.986;12.106;2022-08-03T15:06:48;2.65;;;1.30;;
15818;SDS011;8010;53.986;12.106;2022-08-03T15:09:14;3.28;;;1.08;;
15818;SDS011;8010;53.986;12.106;2022-08-03T15:11:39;3.85;;;1.02;;
15818;SDS011;8010;53.986;12.106;2022-08-03T15:14:05;1.95;;;1.30;;
15818;SDS011;8010;53.986;12.106;2022-08-03T15:16:31;2.25;;;1.00;;
15818;SDS011;8010;53.986;12.106;2022-08-03T15:18:56;2.35;;;1.00;;
15818;SDS011;8010;53.986;12.106;2022-08-03T15:21:22;1.08;;;0.90;;
15818;SDS011;8010;53.986;12.106;2022-08-03T15:23:48;1.33;;;1.05;;
15818;SDS011;8010;53.986;12.106;2022-08-03T15:26:13;2.13;;;1.40;;